sensor_id;sensor_type;location;lat;lon;timestamp;pressure;altitude;pressure_sealevel;temperature;humidity
54194;BME280;40102;50.906;6.972;2022-12-07T00:00:53;101116.22;;;4.40;96.27
54194;BME280;40102;50.906;6.972;2022-12-07T00:03:18;101120.81;;;4.34;96.93
54194;BME280;40102;50.906;6.972;2022-12-07T00:05:44;101119.00;;;4.36;97.16
54194;BME280;40102;50.906;6.972;2022-12-07T00:08:09;101112.84;;;4.34;97.06
54194;BME280;40102;50.906;6.972;2022-12-07T00:10:35;101114.59;;;4.35;97.14
54194;BME280;40102;50.906;6.972;2022-12-07T00:13:00;101112.81;;;4.35;97.11
54194;BME280;40102;50.906;6.972;2022-12-07T00:15:25;101109.25;;;4.36;97.10
54194;BME280;40102;50.906;6.972;2022-12-07T00:17:51;101114.50;;;4.39;96.97
54194;BME280;40102;50.906;6.972;2022-12-07T00:20:16;101114.50;;;4.39;96.75
54194;BME280;40102;50.906;6.972;2022-12-07T00:22:42;101107.38;;;4.41;96.58
54194;BME280;40102;50.906;6.972;2022-12-07T00:25:07;101108.13;;;4.46;96.57
54194;BME280;40102;50.906;6.972;2022-12-07T00:27:32;101103.75;;;4.45;96.55
54194;BME280;40102;50.906;6.972;2022-12-07T00:29:58;101102.75;;;4.49;96.29
54194;BME280;40102;50.906;6.972;2022-12-07T00:32:23;101105.41;;;4.49;95.81
54194;BME280;40102;50.906;6.972;2022-12-07T00:34:48;101094.78;;;4.51;95.89
54194;BME280;40102;50.906;6.972;2022-12-07T00:37:14;101087.69;;;4.51;95.67
54194;BME280;40102;50.906;6.972;2022-12-07T00:39:39;101085.09;;;4.50;95.44
54194;BME280;40102;50.906;6.972;2022-12-07T00:42:05;101088.69;;;4.47;95.20
54194;BME280;40102;50.906;6.972;2022-12-07T00:44:30;101095.72;;;4.48;95.47
54194;BME280;40102;50.906;6.972;2022-12-07T00:46:55;101088.72;;;4.46;95.98
54194;BME280;40102;50.906;6.972;2022-12-07T00:49:21;101095.75;;;4.47;95.96
54194;BME280;40102;50.906;6.972;2022-12-07T00:51:48;101090.38;;;4.50;95.94
54194;BME280;40102;50.906;6.972;2022-12-07T00:54:13;101082.38;;;4.53;95.36
54194;BME280;40102;50.906;6.972;2022-12-07T00:56:41;101088.47;;;4.57;95.02
54194;BME280;40102;50.906;6.972;2022-12-07T00:59:10;101078.69;;;4.59;94.84
54194;BME280;40102;50.906;6.972;2022-12-07T01:01:36;101075.91;;;4.63;93.99
54194;BME280;40102;50.906;6.972;2022-12-07T01:04:02;101077.66;;;4.64;94.16
54194;BME280;40102;50.906;6.972;2022-12-07T01:06:28;101079.59;;;4.58;94.09
54194;BME280;40102;50.906;6.972;2022-12-07T01:08:54;101090.31;;;4.53;94.69
54194;BME280;40102;50.906;6.972;2022-12-07T01:11:23;101084.97;;;4.54;95.16
54194;BME280;40102;50.906;6.972;2022-12-07T01:13:53;101084.97;;;4.54;94.90
54194;BME280;40102;50.906;6.972;2022-12-07T01:16:20;101084.16;;;4.52;95.12
54194;BME280;40102;50.906;6.972;2022-12-07T01:18:48;101094.69;;;4.54;95.14
54194;BME280;40102;50.906;6.972;2022-12-07T01:21:19;101093.88;;;4.52;95.18
54194;BME280;40102;50.906;6.972;2022-12-07T01:23:49;101094.78;;;4.51;95.46
54194;BME280;40102;50.906;6.972;2022-12-07T01:26:18;101092.09;;;4.52;95.50
54194;BME280;40102;50.906;6.972;2022-12-07T01:28:44;101098.19;;;4.56;95.42
54194;BME280;40102;50.906;6.972;2022-12-07T01:31:12;101086.63;;;4.59;94.99
54194;BME280;40102;50.906;6.972;2022-12-07T01:33:40;101085.69;;;4.61;94.90
54194;BME280;40102;50.906;6.972;2022-12-07T01:36:31;101092.72;;;4.62;94.74
54194;BME280;40102;50.906;6.972;2022-12-07T01:38:56;101083.78;;;4.66;94.35
54194;BME280;40102;50.906;6.972;2022-12-07T01:41:27;101091.63;;;4.71;93.95
54194;BME280;40102;50.906;6.972;2022-12-07T01:44:14;101097.69;;;4.76;93.55
54194;BME280;40102;50.906;6.972;2022-12-07T01:46:44;101099.41;;;4.77;93.19
54194;BME280;40102;50.906;6.972;2022-12-07T01:49:17;101085.28;;;4.76;93.27
54194;BME280;40102;50.906;6.972;2022-12-07T01:51:46;101087.91;;;4.78;93.21
54194;BME280;40102;50.906;6.972;2022-12-07T01:54:14;101079.13;;;4.76;92.89
54194;BME280;40102;50.906;6.972;2022-12-07T01:56:42;101083.53;;;4.77;93.22
54194;BME280;40102;50.906;6.972;2022-12-07T01:59:09;101078.19;;;4.78;93.26
54194;BME280;40102;50.906;6.972;2022-12-07T02:01:35;101079.97;;;4.78;92.99
54194;BME280;40102;50.906;6.972;2022-12-07T02:04:00;101075.50;;;4.80;92.96
54194;BME280;40102;50.906;6.972;2022-12-07T02:06:26;101074.56;;;4.81;92.97
54194;BME280;40102;50.906;6.972;2022-12-07T02:08:52;101070.22;;;4.78;92.94
54194;BME280;40102;50.906;6.972;2022-12-07T02:11:18;101058.84;;;4.75;93.27
54194;BME280;40102;50.906;6.972;2022-12-07T02:13:44;101069.47;;;4.73;93.72
54194;BME280;40102;50.906;6.972;2022-12-07T02:16:25;101063.34;;;4.71;93.95
54194;BME280;40102;50.906;6.972;2022-12-07T02:22:16;101056.53;;;4.61;94.54
54194;BME280;40102;50.906;6.972;2022-12-07T02:30:14;101061.06;;;4.58;95.51
54194;BME280;40102;50.906;6.972;2022-12-07T02:35:17;101061.16;;;4.53;95.72
54194;BME280;40102;50.906;6.972;2022-12-07T02:43:12;101062.75;;;4.60;95.23
54194;BME280;40102;50.906;6.972;2022-12-07T02:45:41;101053.84;;;4.63;95.30
54194;BME280;40102;50.906;6.972;2022-12-07T02:48:08;101054.81;;;4.60;95.00
54194;BME280;40102;50.906;6.972;2022-12-07T02:50:35;101053.00;;;4.62;95.34
54194;BME280;40102;50.906;6.972;2022-12-07T02:53:00;101054.69;;;4.65;95.04
54194;BME280;40102;50.906;6.972;2022-12-07T02:55:34;101045.88;;;4.64;94.87
54194;BME280;40102;50.906;6.972;2022-12-07T02:58:28;101038.81;;;4.63;95.04
54194;BME280;40102;50.906;6.972;2022-12-07T03:01:08;101039.78;;;4.61;95.00
54194;BME280;40102;50.906;6.972;2022-12-07T03:03:37;101046.91;;;4.59;95.13
54194;BME280;40102;50.906;6.972;2022-12-07T03:06:21;101045.94;;;4.61;95.41
54194;BME280;40102;50.906;6.972;2022-12-07T03:08:57;101052.06;;;4.63;94.81
54194;BME280;40102;50.906;6.972;2022-12-07T03:11:31;101046.69;;;4.66;94.75
54194;BME280;40102;50.906;6.972;2022-12-07T03:14:18;101056.38;;;4.67;94.50
54194;BME280;40102;50.906;6.972;2022-12-07T03:16:57;101053.81;;;4.64;94.44
54194;BME280;40102;50.906;6.972;2022-12-07T03:19:26;101050.25;;;4.65;94.51
54194;BME280;40102;50.906;6.972;2022-12-07T03:21:57;101057.38;;;4.63;94.87
54194;BME280;40102;50.906;6.972;2022-12-07T03:24:26;101058.25;;;4.64;95.08
54194;BME280;40102;50.906;6.972;2022-12-07T03:26:56;101052.06;;;4.63;95.04
54194;BME280;40102;50.906;6.972;2022-12-07T03:29:31;101053.75;;;4.67;94.66
54194;BME280;40102;50.906;6.972;2022-12-07T03:32:09;101052.03;;;4.65;94.51
54194;BME280;40102;50.906;6.972;2022-12-07T03:37:12;101049.44;;;4.63;94.86
54194;BME280;40102;50.906;6.972;2022-12-07T03:39:57;101038.91;;;4.60;95.01
54194;BME280;40102;50.906;6.972;2022-12-07T03:42:26;101046.91;;;4.59;95.32
54194;BME280;40102;50.906;6.972;2022-12-07T03:44:52;101056.63;;;4.58;95.38
54194;BME280;40102;50.906;6.972;2022-12-07T03:47:47;101053.94;;;4.60;95.43
54194;BME280;40102;50.906;6.972;2022-12-07T03:50:24;101057.41;;;4.62;95.47
54194;BME280;40102;50.906;6.972;2022-12-07T03:53:00;101050.34;;;4.62;94.85
54194;BME280;40102;50.906;6.972;2022-12-07T03:55:31;101053.00;;;4.62;94.74
54194;BME280;40102;50.906;6.972;2022-12-07T03:58:11;101050.38;;;4.61;95.17
54194;BME280;40102;50.906;6.972;2022-12-07T04:00:38;101047.69;;;4.62;95.17
54194;BME280;40102;50.906;6.972;2022-12-07T04:03:03;101041.47;;;4.63;94.63
54194;BME280;40102;50.906;6.972;2022-12-07T04:05:29;101052.00;;;4.66;94.94
54194;BME280;40102;50.906;6.972;2022-12-07T04:07:54;101049.31;;;4.68;94.85
54194;BME280;40102;50.906;6.972;2022-12-07T04:10:20;101053.69;;;4.69;94.55
54194;BME280;40102;50.906;6.972;2022-12-07T04:12:45;101051.91;;;4.69;94.42
54194;BME280;40102;50.906;6.972;2022-12-07T04:15:10;101056.31;;;4.70;94.16
54194;BME280;40102;50.906;6.972;2022-12-07T04:17:36;101063.38;;;4.70;94.23
54194;BME280;40102;50.906;6.972;2022-12-07T04:20:02;101056.38;;;4.67;94.37
54194;BME280;40102;50.906;6.972;2022-12-07T04:22:29;101059.81;;;4.71;94.13
54194;BME280;40102;50.906;6.972;2022-12-07T04:24:54;101061.59;;;4.70;93.96
54194;BME280;40102;50.906;6.972;2022-12-07T04:27:19;101058.91;;;4.72;93.95
54194;BME280;40102;50.906;6.972;2022-12-07T04:29:45;101057.94;;;4.76;94.05
54194;BME280;40102;50.906;6.972;2022-12-07T04:32:10;101044.69;;;4.76;93.91
54194;BME280;40102;50.906;6.972;2022-12-07T04:34:35;101049.19;;;4.72;93.46
54194;BME280;40102;50.906;6.972;2022-12-07T04:37:01;101050.88;;;4.75;93.52
54194;BME280;40102;50.906;6.972;2022-12-07T04:39:32;101043.84;;;4.74;93.30
54194;BME280;40102;50.906;6.972;2022-12-07T04:41:58;101050.94;;;4.73;93.55
54194;BME280;40102;50.906;6.972;2022-12-07T04:44:25;101038.50;;;4.75;93.60
54194;BME280;40102;50.906;6.972;2022-12-07T04:46:51;101042.97;;;4.73;93.46
54194;BME280;40102;50.906;6.972;2022-12-07T04:49:18;101042.94;;;4.75;93.17
54194;BME280;40102;50.906;6.972;2022-12-07T04:51:44;101039.50;;;4.71;93.22
54194;BME280;40102;50.906;6.972;2022-12-07T04:54:10;101048.28;;;4.73;93.41
54194;BME280;40102;50.906;6.972;2022-12-07T04:56:36;101042.16;;;4.71;93.55
54194;BME280;40102;50.906;6.972;2022-12-07T04:59:02;101036.84;;;4.71;93.12
54194;BME280;40102;50.906;6.972;2022-12-07T05:01:27;101042.06;;;4.74;93.33
54194;BME280;40102;50.906;6.972;2022-12-07T05:03:53;101041.13;;;4.77;93.51
54194;BME280;40102;50.906;6.972;2022-12-07T05:06:19;101039.28;;;4.79;93.16
54194;BME280;40102;50.906;6.972;2022-12-07T05:08:44;101047.19;;;4.80;93.02
54194;BME280;40102;50.906;6.972;2022-12-07T05:11:10;101050.59;;;4.85;92.83
54194;BME280;40102;50.906;6.972;2022-12-07T05:13:54;101041.75;;;4.86;92.79
54194;BME280;40102;50.906;6.972;2022-12-07T05:16:19;101052.31;;;4.88;92.42
54194;BME280;40102;50.906;6.972;2022-12-07T05:18:45;101051.38;;;4.89;92.33
54194;BME280;40102;50.906;6.972;2022-12-07T05:21:10;101052.25;;;4.90;92.31
54194;BME280;40102;50.906;6.972;2022-12-07T05:23:35;101048.69;;;4.91;92.04
54194;BME280;40102;50.906;6.972;2022-12-07T05:26:00;101050.47;;;4.90;91.98
54194;BME280;40102;50.906;6.972;2022-12-07T05:28:26;101055.78;;;4.90;91.93
54194;BME280;40102;50.906;6.972;2022-12-07T05:30:51;101051.38;;;4.89;91.67
54194;BME280;40102;50.906;6.972;2022-12-07T05:33:17;101048.81;;;4.86;91.70
54194;BME280;40102;50.906;6.972;2022-12-07T05:35:42;101045.38;;;4.82;92.03
54194;BME280;40102;50.906;6.972;2022-12-07T05:38:07;101048.94;;;4.81;91.98
54194;BME280;40102;50.906;6.972;2022-12-07T05:40:33;101043.66;;;4.81;92.26
54194;BME280;40102;50.906;6.972;2022-12-07T05:43:01;101038.31;;;4.83;92.32
54194;BME280;40102;50.906;6.972;2022-12-07T05:45:26;101046.22;;;4.84;91.55
54194;BME280;40102;50.906;6.972;2022-12-07T05:47:52;101046.25;;;4.83;91.91
54194;BME280;40102;50.906;6.972;2022-12-07T05:50:17;101045.41;;;4.81;92.05
54194;BME280;40102;50.906;6.972;2022-12-07T05:52:42;101047.19;;;4.80;92.22
54194;BME280;40102;50.906;6.972;2022-12-07T05:55:08;101041.97;;;4.77;92.22
54194;BME280;40102;50.906;6.972;2022-12-07T05:57:33;101044.63;;;4.77;92.49
54194;BME280;40102;50.906;6.972;2022-12-07T05:59:59;101046.41;;;4.77;92.28
54194;BME280;40102;50.906;6.972;2022-12-07T06:02:24;101032.38;;;4.73;92.38
54194;BME280;40102;50.906;6.972;2022-12-07T06:04:49;101029.81;;;4.70;92.88
54194;BME280;40102;50.906;6.972;2022-12-07T06:07:16;101030.81;;;4.66;93.16
54194;BME280;40102;50.906;6.972;2022-12-07T06:09:41;101032.69;;;4.61;93.68
54194;BME280;40102;50.906;6.972;2022-12-07T06:12:10;101039.00;;;4.57;93.74
54194;BME280;40102;50.906;6.972;2022-12-07T06:14:54;101031.13;;;4.54;94.30
54194;BME280;40102;50.906;6.972;2022-12-07T06:17:19;101036.31;;;4.59;94.21
54194;BME280;40102;50.906;6.972;2022-12-07T06:19:45;101043.25;;;4.63;94.01
54194;BME280;40102;50.906;6.972;2022-12-07T06:22:11;101042.28;;;4.67;93.70
54194;BME280;40102;50.906;6.972;2022-12-07T06:24:37;101045.75;;;4.69;93.46
54194;BME280;40102;50.906;6.972;2022-12-07T06:27:03;101043.97;;;4.69;93.39
54194;BME280;40102;50.906;6.972;2022-12-07T06:29:29;101041.41;;;4.66;92.94
54194;BME280;40102;50.906;6.972;2022-12-07T06:31:54;101040.50;;;4.67;92.97
54194;BME280;40102;50.906;6.972;2022-12-07T06:34:21;101046.75;;;4.65;93.06
54194;BME280;40102;50.906;6.972;2022-12-07T06:36:53;101049.44;;;4.63;93.13
54194;BME280;40102;50.906;6.972;2022-12-07T06:39:25;101053.00;;;4.62;93.13
54194;BME280;40102;50.906;6.972;2022-12-07T06:41:51;101048.56;;;4.63;93.09
54194;BME280;40102;50.906;6.972;2022-12-07T06:44:17;101053.06;;;4.59;93.22
54194;BME280;40102;50.906;6.972;2022-12-07T06:46:42;101053.84;;;4.63;93.14
54194;BME280;40102;50.906;6.972;2022-12-07T06:49:08;101051.25;;;4.61;92.94
54194;BME280;40102;50.906;6.972;2022-12-07T06:51:34;101058.41;;;4.58;93.20
54194;BME280;40102;50.906;6.972;2022-12-07T06:54:02;101062.91;;;4.54;93.09
54194;BME280;40102;50.906;6.972;2022-12-07T06:56:29;101068.22;;;4.54;93.72
54194;BME280;40102;50.906;6.972;2022-12-07T06:58:54;101052.28;;;4.55;93.73
54194;BME280;40102;50.906;6.972;2022-12-07T07:01:20;101061.84;;;4.61;93.46
54194;BME280;40102;50.906;6.972;2022-12-07T07:03:46;101058.28;;;4.62;93.37
54194;BME280;40102;50.906;6.972;2022-12-07T07:06:13;101059.06;;;4.66;93.25
54194;BME280;40102;50.906;6.972;2022-12-07T07:08:39;101065.16;;;4.69;93.01
54194;BME280;40102;50.906;6.972;2022-12-07T07:11:05;101063.31;;;4.73;92.81
54194;BME280;40102;50.906;6.972;2022-12-07T07:13:31;101065.88;;;4.76;92.66
54194;BME280;40102;50.906;6.972;2022-12-07T07:15:57;101066.66;;;4.79;92.18
54194;BME280;40102;50.906;6.972;2022-12-07T07:18:23;101068.41;;;4.80;92.09
54194;BME280;40102;50.906;6.972;2022-12-07T07:20:50;101070.97;;;4.83;91.84
54194;BME280;40102;50.906;6.972;2022-12-07T07:23:15;101080.75;;;4.81;91.58
54194;BME280;40102;50.906;6.972;2022-12-07T07:25:41;101076.41;;;4.79;91.51
54194;BME280;40102;50.906;6.972;2022-12-07T07:28:09;101081.69;;;4.79;91.65
54194;BME280;40102;50.906;6.972;2022-12-07T07:30:34;101067.53;;;4.80;91.64
54194;BME280;40102;50.906;6.972;2022-12-07T07:33:01;101071.94;;;4.81;91.64
54194;BME280;40102;50.906;6.972;2022-12-07T07:35:27;101072.88;;;4.78;91.58
54194;BME280;40102;50.906;6.972;2022-12-07T07:37:54;101068.47;;;4.77;91.63
54194;BME280;40102;50.906;6.972;2022-12-07T07:40:19;101066.78;;;4.75;91.58
54194;BME280;40102;50.906;6.972;2022-12-07T07:42:47;101073.16;;;4.68;91.78
54194;BME280;40102;50.906;6.972;2022-12-07T07:45:13;101069.19;;;4.84;98.51
54194;BME280;40102;50.906;6.972;2022-12-07T07:47:39;101066.34;;;4.92;95.81
54194;BME280;40102;50.906;6.972;2022-12-07T07:50:05;101072.59;;;4.89;94.70
54194;BME280;40102;50.906;6.972;2022-12-07T07:52:31;101084.38;;;4.77;93.41
54194;BME280;40102;50.906;6.972;2022-12-07T07:54:56;101074.84;;;4.70;93.46
54194;BME280;40102;50.906;6.972;2022-12-07T07:57:21;101083.88;;;4.63;93.05
54194;BME280;40102;50.906;6.972;2022-12-07T07:59:47;101078.69;;;4.59;93.15
54194;BME280;40102;50.906;6.972;2022-12-07T08:02:14;101080.50;;;4.57;93.34
54194;BME280;40102;50.906;6.972;2022-12-07T08:04:40;101072.56;;;4.57;93.66
54194;BME280;40102;50.906;6.972;2022-12-07T08:07:06;101077.03;;;4.54;93.70
54194;BME280;40102;50.906;6.972;2022-12-07T08:09:31;101078.78;;;4.55;93.70
54194;BME280;40102;50.906;6.972;2022-12-07T08:11:57;101084.94;;;4.56;93.76
54194;BME280;40102;50.906;6.972;2022-12-07T08:14:23;101072.59;;;4.55;93.67
54194;BME280;40102;50.906;6.972;2022-12-07T08:16:49;101086.72;;;4.55;93.61
54194;BME280;40102;50.906;6.972;2022-12-07T08:19:14;101079.72;;;4.53;93.87
54194;BME280;40102;50.906;6.972;2022-12-07T08:21:40;101078.78;;;4.55;93.82
54194;BME280;40102;50.906;6.972;2022-12-07T08:24:05;101082.25;;;4.58;93.42
54194;BME280;40102;50.906;6.972;2022-12-07T08:26:30;101089.38;;;4.55;93.27
54194;BME280;40102;50.906;6.972;2022-12-07T08:28:56;101083.16;;;4.57;93.42
54194;BME280;40102;50.906;6.972;2022-12-07T08:31:21;101078.78;;;4.55;93.45
54194;BME280;40102;50.906;6.972;2022-12-07T08:33:47;101082.38;;;4.53;93.56
54194;BME280;40102;50.906;6.972;2022-12-07T08:36:13;101090.31;;;4.53;93.75
54194;BME280;40102;50.906;6.972;2022-12-07T08:38:39;101091.19;;;4.53;93.82
54194;BME280;40102;50.906;6.972;2022-12-07T08:41:06;101087.75;;;4.50;93.74
54194;BME280;40102;50.906;6.972;2022-12-07T08:43:32;101085.13;;;4.48;93.92
54194;BME280;40102;50.906;6.972;2022-12-07T08:46:11;101084.22;;;4.49;93.87
54194;BME280;40102;50.906;6.972;2022-12-07T08:48:45;101087.66;;;4.53;94.15
54194;BME280;40102;50.906;6.972;2022-12-07T08:51:12;101087.59;;;4.56;93.85
54194;BME280;40102;50.906;6.972;2022-12-07T08:53:38;101090.16;;;4.59;93.97
54194;BME280;40102;50.906;6.972;2022-12-07T08:56:05;101088.31;;;4.63;93.93
54194;BME280;40102;50.906;6.972;2022-12-07T08:58:33;101092.63;;;4.67;93.50
54194;BME280;40102;50.906;6.972;2022-12-07T09:00:59;101081.97;;;4.68;93.31
54194;BME280;40102;50.906;6.972;2022-12-07T09:03:24;101081.91;;;4.71;93.20
54194;BME280;40102;50.906;6.972;2022-12-07T09:05:50;101082.72;;;4.73;93.00
54194;BME280;40102;50.906;6.972;2022-12-07T09:08:16;101078.28;;;4.74;92.82
54194;BME280;40102;50.906;6.972;2022-12-07T09:10:41;101080.00;;;4.76;92.74
54194;BME280;40102;50.906;6.972;2022-12-07T09:13:07;101089.66;;;4.79;92.36
54194;BME280;40102;50.906;6.972;2022-12-07T09:15:32;101082.66;;;4.76;92.40
54194;BME280;40102;50.906;6.972;2022-12-07T09:17:58;101095.94;;;4.75;92.64
54194;BME280;40102;50.906;6.972;2022-12-07T09:20:23;101086.22;;;4.75;92.52
54194;BME280;40102;50.906;6.972;2022-12-07T09:22:49;101088.00;;;4.75;92.64
54194;BME280;40102;50.906;6.972;2022-12-07T09:25:14;101092.31;;;4.79;92.94
54194;BME280;40102;50.906;6.972;2022-12-07T09:27:40;101094.03;;;4.80;92.75
54194;BME280;40102;50.906;6.972;2022-12-07T09:30:06;101095.75;;;4.82;92.51
54194;BME280;40102;50.906;6.972;2022-12-07T09:32:32;101094.03;;;4.80;92.59
54194;BME280;40102;50.906;6.972;2022-12-07T09:34:57;101095.91;;;4.76;92.86
54194;BME280;40102;50.906;6.972;2022-12-07T09:37:23;101106.47;;;4.78;93.11
54194;BME280;40102;50.906;6.972;2022-12-07T09:39:48;101095.94;;;4.75;93.06
54194;BME280;40102;50.906;6.972;2022-12-07T09:42:29;101087.13;;;4.74;92.70
54194;BME280;40102;50.906;6.972;2022-12-07T09:44:58;101089.81;;;4.73;92.64
54194;BME280;40102;50.906;6.972;2022-12-07T09:47:24;101099.47;;;4.75;92.53
54194;BME280;40102;50.906;6.972;2022-12-07T09:49:49;101090.53;;;4.79;92.59
54194;BME280;40102;50.906;6.972;2022-12-07T09:52:33;101098.31;;;4.85;92.10
54194;BME280;40102;50.906;6.972;2022-12-07T09:54:59;101106.25;;;4.85;92.56
54194;BME280;40102;50.906;6.972;2022-12-07T09:57:30;101092.19;;;4.83;92.76
54194;BME280;40102;50.906;6.972;2022-12-07T10:00:01;101086.13;;;4.78;92.97
54194;BME280;40102;50.906;6.972;2022-12-07T10:02:39;101085.25;;;4.78;92.88
54194;BME280;40102;50.906;6.972;2022-12-07T10:05:12;101079.13;;;4.76;93.37
54194;BME280;40102;50.906;6.972;2022-12-07T10:07:38;101082.69;;;4.75;93.32
54194;BME280;40102;50.906;6.972;2022-12-07T10:10:14;101080.91;;;4.75;92.80
54194;BME280;40102;50.906;6.972;2022-12-07T10:13:08;101079.03;;;4.79;93.30
54194;BME280;40102;50.906;6.972;2022-12-07T10:15:57;101077.31;;;4.78;93.72
54194;BME280;40102;50.906;6.972;2022-12-07T10:18:35;101067.56;;;4.78;94.07
54194;BME280;40102;50.906;6.972;2022-12-07T10:21:24;101069.28;;;4.81;94.23
54194;BME280;40102;50.906;6.972;2022-12-07T10:24:04;101072.75;;;4.83;94.12
54194;BME280;40102;50.906;6.972;2022-12-07T10:28:59;101069.91;;;4.91;93.03
54194;BME280;40102;50.906;6.972;2022-12-07T10:31:24;101048.91;;;4.83;92.74
54194;BME280;40102;50.906;6.972;2022-12-07T10:33:53;101044.44;;;4.85;92.73
54194;BME280;40102;50.906;6.972;2022-12-07T10:36:36;101052.19;;;4.93;92.64
54194;BME280;40102;50.906;6.972;2022-12-07T10:39:20;101057.47;;;4.93;92.35
54194;BME280;40102;50.906;6.972;2022-12-07T10:41:57;101046.91;;;4.91;92.04
54194;BME280;40102;50.906;6.972;2022-12-07T10:44:28;101051.25;;;4.94;91.92
54194;BME280;40102;50.906;6.972;2022-12-07T10:52:21;101043.31;;;4.94;91.20
54194;BME280;40102;50.906;6.972;2022-12-07T10:58:19;101038.78;;;4.97;91.78
54194;BME280;40102;50.906;6.972;2022-12-07T11:06:30;101029.59;;;5.10;91.06
54194;BME280;40102;50.906;6.972;2022-12-07T11:12:09;101006.50;;;5.14;89.95
54194;BME280;40102;50.906;6.972;2022-12-07T11:14:47;101013.50;;;5.16;89.86
54194;BME280;40102;50.906;6.972;2022-12-07T11:19:52;101002.69;;;5.22;89.31
54194;BME280;40102;50.906;6.972;2022-12-07T11:25:36;100989.41;;;5.22;88.99
54194;BME280;40102;50.906;6.972;2022-12-07T11:28:33;100987.63;;;5.23;89.11
54194;BME280;40102;50.906;6.972;2022-12-07T11:31:14;100990.19;;;5.26;88.96
54194;BME280;40102;50.906;6.972;2022-12-07T11:36:44;100983.03;;;5.30;88.27
54194;BME280;40102;50.906;6.972;2022-12-07T11:39:35;100990.06;;;5.31;88.09
54194;BME280;40102;50.906;6.972;2022-12-07T11:42:19;100987.41;;;5.31;88.27
54194;BME280;40102;50.906;6.972;2022-12-07T11:47:58;100975.84;;;5.33;88.48
54194;BME280;40102;50.906;6.972;2022-12-07T11:50:41;100978.50;;;5.33;88.49
54194;BME280;40102;50.906;6.972;2022-12-07T11:55:45;100976.72;;;5.34;87.93
54194;BME280;40102;50.906;6.972;2022-12-07T11:58:36;100971.41;;;5.34;88.18
54194;BME280;40102;50.906;6.972;2022-12-07T12:03:44;100972.13;;;5.39;87.91
54194;BME280;40102;50.906;6.972;2022-12-07T12:06:10;100968.63;;;5.38;87.66
54194;BME280;40102;50.906;6.972;2022-12-07T12:18:58;100968.97;;;5.26;87.89
54194;BME280;40102;50.906;6.972;2022-12-07T12:21:31;100968.94;;;5.28;87.91
54194;BME280;40102;50.906;6.972;2022-12-07T12:24:01;100960.06;;;5.29;88.07
54194;BME280;40102;50.906;6.972;2022-12-07T12:26:32;100966.25;;;5.29;88.03
54194;BME280;40102;50.906;6.972;2022-12-07T12:34:01;100968.75;;;5.34;87.45
54194;BME280;40102;50.906;6.972;2022-12-07T12:36:44;100961.66;;;5.34;87.34
54194;BME280;40102;50.906;6.972;2022-12-07T12:39:11;100955.44;;;5.35;87.54
54194;BME280;40102;50.906;6.972;2022-12-07T12:50:17;100948.53;;;5.30;87.14
54194;BME280;40102;50.906;6.972;2022-12-07T12:57:36;100945.13;;;5.26;87.71
54194;BME280;40102;50.906;6.972;2022-12-07T13:00:21;100945.94;;;5.28;87.80
54194;BME280;40102;50.906;6.972;2022-12-07T13:02:51;100945.03;;;5.29;87.74
54194;BME280;40102;50.906;6.972;2022-12-07T13:05:19;100949.41;;;5.30;87.43
54194;BME280;40102;50.906;6.972;2022-12-07T13:21:00;100935.31;;;5.28;87.19
54194;BME280;40102;50.906;6.972;2022-12-07T13:26:02;100935.56;;;5.20;87.16
54194;BME280;40102;50.906;6.972;2022-12-07T13:28:37;100934.66;;;5.21;87.65
54194;BME280;40102;50.906;6.972;2022-12-07T13:33:43;100922.25;;;5.22;88.09
54194;BME280;40102;50.906;6.972;2022-12-07T13:38:55;100923.94;;;5.25;87.77
54194;BME280;40102;50.906;6.972;2022-12-07T13:41:28;100910.00;;;5.19;87.59
54194;BME280;40102;50.906;6.972;2022-12-07T13:46:40;100905.47;;;5.21;87.77
54194;BME280;40102;50.906;6.972;2022-12-07T13:49:20;100895.72;;;5.22;87.67
54194;BME280;40102;50.906;6.972;2022-12-07T13:51:46;100903.63;;;5.24;87.19
54194;BME280;40102;50.906;6.972;2022-12-07T13:54:13;100901.91;;;5.22;87.40
54194;BME280;40102;50.906;6.972;2022-12-07T13:56:39;100899.38;;;5.19;87.32
54194;BME280;40102;50.906;6.972;2022-12-07T13:59:17;100894.06;;;5.19;87.64
54194;BME280;40102;50.906;6.972;2022-12-07T14:01:45;100893.03;;;5.24;87.72
54194;BME280;40102;50.906;6.972;2022-12-07T14:04:33;100887.69;;;5.25;87.66
54194;BME280;40102;50.906;6.972;2022-12-07T14:07:00;100888.50;;;5.27;87.55
54194;BME280;40102;50.906;6.972;2022-12-07T14:09:28;100885.84;;;5.27;87.69
54194;BME280;40102;50.906;6.972;2022-12-07T14:11:55;100880.44;;;5.30;87.32
54194;BME280;40102;50.906;6.972;2022-12-07T14:14:31;100884.03;;;5.29;86.97
54194;BME280;40102;50.906;6.972;2022-12-07T14:16:59;100886.72;;;5.28;86.98
54194;BME280;40102;50.906;6.972;2022-12-07T14:19:48;100885.91;;;5.26;86.85
54194;BME280;40102;50.906;6.972;2022-12-07T14:22:38;100890.25;;;5.28;86.29
54194;BME280;40102;50.906;6.972;2022-12-07T14:27:33;100878.00;;;5.24;87.54
54194;BME280;40102;50.906;6.972;2022-12-07T14:30:03;100870.84;;;5.26;87.13
54194;BME280;40102;50.906;6.972;2022-12-07T14:32:30;100870.94;;;5.23;87.11
54194;BME280;40102;50.906;6.972;2022-12-07T14:35:00;100866.56;;;5.22;87.21
54194;BME280;40102;50.906;6.972;2022-12-07T14:37:27;100865.78;;;5.20;87.31
54194;BME280;40102;50.906;6.972;2022-12-07T14:39:52;100869.22;;;5.22;87.69
54194;BME280;40102;50.906;6.972;2022-12-07T14:42:18;100870.22;;;5.19;87.75
54194;BME280;40102;50.906;6.972;2022-12-07T14:44:45;100858.66;;;5.20;87.94
54194;BME280;40102;50.906;6.972;2022-12-07T14:47:10;100863.91;;;5.22;87.54
54194;BME280;40102;50.906;6.972;2022-12-07T14:49:36;100856.88;;;5.21;87.47
54194;BME280;40102;50.906;6.972;2022-12-07T14:52:02;100853.34;;;5.20;87.70
54194;BME280;40102;50.906;6.972;2022-12-07T14:54:29;100853.44;;;5.19;87.96
54194;BME280;40102;50.906;6.972;2022-12-07T14:56:56;100842.06;;;5.15;88.06
54194;BME280;40102;50.906;6.972;2022-12-07T14:59:22;100840.09;;;5.20;87.60
54194;BME280;40102;50.906;6.972;2022-12-07T15:01:48;100848.13;;;5.19;87.98